sensor_id;sensor_type;location;lat;lon;timestamp;P1;durP1;ratioP1;P2;durP2;ratioP2
48040;SDS011;33815;48.386;11.738;2023-06-14T00:01:09;4.67;;;3.23;;
48040;SDS011;33815;48.386;11.738;2023-06-14T00:03:34;3.92;;;2.97;;
48040;SDS011;33815;48.386;11.738;2023-06-14T00:06:00;4.30;;;3.45;;
48040;SDS011;33815;48.386;11.738;2023-06-14T00:08:25;6.10;;;3.63;;
48040;SDS011;33815;48.386;11.738;2023-06-14T00:10:50;6.55;;;3.72;;
48040;SDS011;33815;48.386;11.738;2023-06-14T00:13:16;9.20;;;3.92;;
48040;SDS011;33815;48.386;11.738;2023-06-14T00:15:41;6.93;;;3.75;;
48040;SDS011;33815;48.386;11.738;2023-06-14T00:18:07;10.85;;;3.75;;
48040;SDS011;33815;48.386;11.738;2023-06-14T00:20:34;5.55;;;3.55;;
48040;SDS011;33815;48.386;11.738;2023-06-14T00:23:00;5.47;;;3.40;;
48040;SDS011;33815;48.386;11.738;2023-06-14T00:25:25;6.55;;;3.13;;
48040;SDS011;33815;48.386;11.738;2023-06-14T00:27:51;6.85;;;3.47;;
48040;SDS011;33815;48.386;11.738;2023-06-14T00:30:17;5.35;;;3.40;;
48040;SDS011;33815;48.386;11.738;2023-06-14T00:32:43;5.85;;;3.55;;
48040;SDS011;33815;48.386;11.738;2023-06-14T00:35:09;5.85;;;4.13;;
48040;SDS011;33815;48.386;11.738;2023-06-14T00:37:34;9.20;;;4.05;;
48040;SDS011;33815;48.386;11.738;2023-06-14T00:40:00;9.90;;;5.18;;
48040;SDS011;33815;48.386;11.738;2023-06-14T00:42:26;5.35;;;4.20;;
48040;SDS011;33815;48.386;11.738;2023-06-14T00:44:52;6.38;;;3.47;;
48040;SDS011;33815;48.386;11.738;2023-06-14T00:47:17;4.20;;;3.45;;
48040;SDS011;33815;48.386;11.738;2023-06-14T00:49:45;6.50;;;3.40;;
48040;SDS011;33815;48.386;11.738;2023-06-14T00:52:11;7.50;;;3.47;;
48040;SDS011;33815;48.386;11.738;2023-06-14T00:54:37;10.73;;;3.08;;
48040;SDS011;33815;48.386;11.738;2023-06-14T00:57:03;5.35;;;3.10;;
48040;SDS011;33815;48.386;11.738;2023-06-14T00:59:28;5.88;;;3.38;;
48040;SDS011;33815;48.386;11.738;2023-06-14T01:01:55;4.75;;;3.22;;
48040;SDS011;33815;48.386;11.738;2023-06-14T01:04:20;4.25;;;2.58;;
48040;SDS011;33815;48.386;11.738;2023-06-14T01:06:55;7.43;;;3.35;;
48040;SDS011;33815;48.386;11.738;2023-06-14T01:09:33;4.20;;;3.50;;
48040;SDS011;33815;48.386;11.738;2023-06-14T01:12:11;5.63;;;3.58;;
48040;SDS011;33815;48.386;11.738;2023-06-14T01:14:40;3.45;;;3.15;;
48040;SDS011;33815;48.386;11.738;2023-06-14T01:17:07;5.85;;;3.38;;
48040;SDS011;33815;48.386;11.738;2023-06-14T01:19:40;5.57;;;4.28;;
48040;SDS011;33815;48.386;11.738;2023-06-14T01:22:07;9.65;;;5.82;;
48040;SDS011;33815;48.386;11.738;2023-06-14T01:24:33;9.85;;;5.65;;
48040;SDS011;33815;48.386;11.738;2023-06-14T01:26:59;6.43;;;4.15;;
48040;SDS011;33815;48.386;11.738;2023-06-14T01:29:27;5.40;;;3.70;;
48040;SDS011;33815;48.386;11.738;2023-06-14T01:31:57;5.10;;;3.22;;
48040;SDS011;33815;48.386;11.738;2023-06-14T01:34:23;5.45;;;3.50;;
48040;SDS011;33815;48.386;11.738;2023-06-14T01:36:48;5.88;;;4.10;;
48040;SDS011;33815;48.386;11.738;2023-06-14T01:39:15;4.13;;;3.63;;
48040;SDS011;33815;48.386;11.738;2023-06-14T01:41:42;4.43;;;3.00;;
48040;SDS011;33815;48.386;11.738;2023-06-14T01:44:09;4.18;;;3.33;;
48040;SDS011;33815;48.386;11.738;2023-06-14T01:46:35;4.20;;;3.15;;
48040;SDS011;33815;48.386;11.738;2023-06-14T01:49:01;4.57;;;3.28;;
48040;SDS011;33815;48.386;11.738;2023-06-14T01:51:27;6.40;;;3.75;;
48040;SDS011;33815;48.386;11.738;2023-06-14T01:53:52;5.07;;;3.90;;
48040;SDS011;33815;48.386;11.738;2023-06-14T01:56:17;7.47;;;2.95;;
48040;SDS011;33815;48.386;11.738;2023-06-14T01:58:43;6.05;;;3.60;;
48040;SDS011;33815;48.386;11.738;2023-06-14T02:01:08;4.28;;;3.53;;
48040;SDS011;33815;48.386;11.738;2023-06-14T02:03:34;7.63;;;5.00;;
48040;SDS011;33815;48.386;11.738;2023-06-14T02:05:59;7.18;;;4.00;;
48040;SDS011;33815;48.386;11.738;2023-06-14T02:08:24;6.50;;;3.58;;
48040;SDS011;33815;48.386;11.738;2023-06-14T02:10:49;8.32;;;4.18;;
48040;SDS011;33815;48.386;11.738;2023-06-14T02:13:15;5.28;;;3.63;;
48040;SDS011;33815;48.386;11.738;2023-06-14T02:15:40;6.95;;;3.83;;
48040;SDS011;33815;48.386;11.738;2023-06-14T02:18:09;6.68;;;3.67;;
48040;SDS011;33815;48.386;11.738;2023-06-14T02:20:34;7.82;;;4.35;;
48040;SDS011;33815;48.386;11.738;2023-06-14T02:23:00;8.65;;;5.35;;
48040;SDS011;33815;48.386;11.738;2023-06-14T02:25:26;8.00;;;4.60;;
48040;SDS011;33815;48.386;11.738;2023-06-14T02:27:52;14.70;;;5.68;;
48040;SDS011;33815;48.386;11.738;2023-06-14T02:30:18;7.70;;;5.38;;
48040;SDS011;33815;48.386;11.738;2023-06-14T02:32:44;6.35;;;4.15;;
48040;SDS011;33815;48.386;11.738;2023-06-14T02:35:10;5.55;;;3.65;;
48040;SDS011;33815;48.386;11.738;2023-06-14T02:37:35;10.02;;;3.53;;
48040;SDS011;33815;48.386;11.738;2023-06-14T02:40:00;8.63;;;4.32;;
48040;SDS011;33815;48.386;11.738;2023-06-14T02:42:26;4.25;;;3.42;;
48040;SDS011;33815;48.386;11.738;2023-06-14T02:44:51;5.47;;;4.28;;
48040;SDS011;33815;48.386;11.738;2023-06-14T02:47:17;5.75;;;3.75;;
48040;SDS011;33815;48.386;11.738;2023-06-14T02:49:43;3.90;;;2.80;;
48040;SDS011;33815;48.386;11.738;2023-06-14T02:52:08;5.18;;;4.00;;
48040;SDS011;33815;48.386;11.738;2023-06-14T02:54:34;6.10;;;3.00;;
48040;SDS011;33815;48.386;11.738;2023-06-14T02:56:59;5.75;;;3.60;;
48040;SDS011;33815;48.386;11.738;2023-06-14T02:59:24;8.85;;;4.10;;
48040;SDS011;33815;48.386;11.738;2023-06-14T03:01:50;5.25;;;3.70;;
48040;SDS011;33815;48.386;11.738;2023-06-14T03:04:15;8.00;;;4.70;;
48040;SDS011;33815;48.386;11.738;2023-06-14T03:06:41;17.23;;;6.97;;
48040;SDS011;33815;48.386;11.738;2023-06-14T03:09:09;17.10;;;7.80;;
48040;SDS011;33815;48.386;11.738;2023-06-14T03:11:34;14.75;;;7.63;;
48040;SDS011;33815;48.386;11.738;2023-06-14T03:14:00;10.23;;;5.38;;
48040;SDS011;33815;48.386;11.738;2023-06-14T03:16:26;8.85;;;4.07;;
48040;SDS011;33815;48.386;11.738;2023-06-14T03:18:54;6.53;;;4.05;;
48040;SDS011;33815;48.386;11.738;2023-06-14T03:21:20;5.13;;;3.20;;
48040;SDS011;33815;48.386;11.738;2023-06-14T03:23:46;5.35;;;3.72;;
48040;SDS011;33815;48.386;11.738;2023-06-14T03:26:12;6.93;;;3.47;;
48040;SDS011;33815;48.386;11.738;2023-06-14T03:28:42;4.30;;;3.35;;
48040;SDS011;33815;48.386;11.738;2023-06-14T03:31:08;4.43;;;3.97;;
48040;SDS011;33815;48.386;11.738;2023-06-14T03:33:34;5.85;;;4.05;;
48040;SDS011;33815;48.386;11.738;2023-06-14T03:35:59;6.35;;;3.38;;
48040;SDS011;33815;48.386;11.738;2023-06-14T03:38:25;4.90;;;3.28;;
48040;SDS011;33815;48.386;11.738;2023-06-14T03:40:50;7.18;;;3.50;;
48040;SDS011;33815;48.386;11.738;2023-06-14T03:43:15;6.32;;;3.55;;
48040;SDS011;33815;48.386;11.738;2023-06-14T03:45:40;7.07;;;3.40;;
48040;SDS011;33815;48.386;11.738;2023-06-14T03:48:06;6.25;;;3.22;;
48040;SDS011;33815;48.386;11.738;2023-06-14T03:50:33;4.95;;;3.33;;
48040;SDS011;33815;48.386;11.738;2023-06-14T03:52:58;4.68;;;3.40;;
48040;SDS011;33815;48.386;11.738;2023-06-14T03:55:23;3.60;;;3.10;;
48040;SDS011;33815;48.386;11.738;2023-06-14T03:57:50;6.68;;;4.15;;
48040;SDS011;33815;48.386;11.738;2023-06-14T04:00:16;5.97;;;3.58;;
48040;SDS011;33815;48.386;11.738;2023-06-14T04:02:43;6.82;;;3.35;;
48040;SDS011;33815;48.386;11.738;2023-06-14T04:05:09;5.68;;;3.65;;
48040;SDS011;33815;48.386;11.738;2023-06-14T04:07:34;5.25;;;3.47;;
48040;SDS011;33815;48.386;11.738;2023-06-14T04:10:05;4.55;;;3.50;;
48040;SDS011;33815;48.386;11.738;2023-06-14T04:12:32;7.55;;;3.75;;
48040;SDS011;33815;48.386;11.738;2023-06-14T04:14:57;5.78;;;3.72;;
48040;SDS011;33815;48.386;11.738;2023-06-14T04:17:22;6.32;;;4.07;;
48040;SDS011;33815;48.386;11.738;2023-06-14T04:19:48;4.13;;;3.55;;
48040;SDS011;33815;48.386;11.738;2023-06-14T04:22:13;6.43;;;3.90;;
48040;SDS011;33815;48.386;11.738;2023-06-14T04:24:38;9.18;;;3.85;;
48040;SDS011;33815;48.386;11.738;2023-06-14T04:27:03;3.93;;;3.50;;
48040;SDS011;33815;48.386;11.738;2023-06-14T04:29:29;5.78;;;3.50;;
48040;SDS011;33815;48.386;11.738;2023-06-14T04:31:54;9.20;;;3.63;;
48040;SDS011;33815;48.386;11.738;2023-06-14T04:34:23;5.22;;;3.47;;
48040;SDS011;33815;48.386;11.738;2023-06-14T04:36:54;5.30;;;3.10;;
48040;SDS011;33815;48.386;11.738;2023-06-14T04:39:21;6.55;;;3.88;;
48040;SDS011;33815;48.386;11.738;2023-06-14T04:41:47;6.63;;;3.80;;
48040;SDS011;33815;48.386;11.738;2023-06-14T04:44:16;4.13;;;3.35;;
48040;SDS011;33815;48.386;11.738;2023-06-14T04:46:43;5.28;;;3.35;;
48040;SDS011;33815;48.386;11.738;2023-06-14T04:49:14;3.95;;;3.53;;
48040;SDS011;33815;48.386;11.738;2023-06-14T04:51:41;6.38;;;3.72;;
48040;SDS011;33815;48.386;11.738;2023-06-14T04:54:07;4.32;;;3.47;;
48040;SDS011;33815;48.386;11.738;2023-06-14T04:56:38;8.68;;;3.90;;
48040;SDS011;33815;48.386;11.738;2023-06-14T04:59:03;11.17;;;3.70;;
48040;SDS011;33815;48.386;11.738;2023-06-14T05:01:32;5.50;;;3.72;;
48040;SDS011;33815;48.386;11.738;2023-06-14T05:03:58;6.80;;;3.13;;
48040;SDS011;33815;48.386;11.738;2023-06-14T05:06:23;3.60;;;2.90;;
48040;SDS011;33815;48.386;11.738;2023-06-14T05:08:49;5.38;;;3.78;;
48040;SDS011;33815;48.386;11.738;2023-06-14T05:11:14;6.68;;;3.40;;
48040;SDS011;33815;48.386;11.738;2023-06-14T05:13:41;3.53;;;2.70;;
48040;SDS011;33815;48.386;11.738;2023-06-14T05:16:07;6.25;;;3.05;;
48040;SDS011;33815;48.386;11.738;2023-06-14T05:18:32;3.95;;;3.47;;
48040;SDS011;33815;48.386;11.738;2023-06-14T05:20:59;7.38;;;3.13;;
48040;SDS011;33815;48.386;11.738;2023-06-14T05:23:24;3.42;;;2.88;;
48040;SDS011;33815;48.386;11.738;2023-06-14T05:25:50;6.30;;;3.55;;
48040;SDS011;33815;48.386;11.738;2023-06-14T05:28:15;5.40;;;3.13;;
48040;SDS011;33815;48.386;11.738;2023-06-14T05:30:41;4.47;;;3.58;;
48040;SDS011;33815;48.386;11.738;2023-06-14T05:33:07;4.18;;;3.33;;
48040;SDS011;33815;48.386;11.738;2023-06-14T05:35:32;4.07;;;3.38;;
48040;SDS011;33815;48.386;11.738;2023-06-14T05:37:58;7.22;;;3.47;;
48040;SDS011;33815;48.386;11.738;2023-06-14T05:40:23;4.07;;;3.03;;
48040;SDS011;33815;48.386;11.738;2023-06-14T05:42:49;6.05;;;3.08;;
48040;SDS011;33815;48.386;11.738;2023-06-14T05:45:14;3.85;;;2.72;;
48040;SDS011;33815;48.386;11.738;2023-06-14T05:47:40;5.00;;;2.75;;
48040;SDS011;33815;48.386;11.738;2023-06-14T05:50:06;5.13;;;3.17;;
48040;SDS011;33815;48.386;11.738;2023-06-14T05:52:32;3.22;;;2.75;;
48040;SDS011;33815;48.386;11.738;2023-06-14T05:54:57;4.20;;;2.78;;
48040;SDS011;33815;48.386;11.738;2023-06-14T05:57:22;4.78;;;3.10;;
48040;SDS011;33815;48.386;11.738;2023-06-14T05:59:47;5.17;;;2.77;;
48040;SDS011;33815;48.386;11.738;2023-06-14T06:02:13;3.78;;;2.47;;
48040;SDS011;33815;48.386;11.738;2023-06-14T06:04:38;3.17;;;2.43;;
48040;SDS011;33815;48.386;11.738;2023-06-14T06:07:03;3.38;;;2.75;;
48040;SDS011;33815;48.386;11.738;2023-06-14T06:09:29;2.92;;;2.65;;
48040;SDS011;33815;48.386;11.738;2023-06-14T06:11:54;4.95;;;2.90;;
48040;SDS011;33815;48.386;11.738;2023-06-14T06:14:20;5.53;;;2.70;;
48040;SDS011;33815;48.386;11.738;2023-06-14T06:16:45;4.07;;;3.00;;
48040;SDS011;33815;48.386;11.738;2023-06-14T06:19:10;4.93;;;2.63;;
48040;SDS011;33815;48.386;11.738;2023-06-14T06:21:35;3.77;;;2.83;;
48040;SDS011;33815;48.386;11.738;2023-06-14T06:24:01;5.25;;;3.08;;
48040;SDS011;33815;48.386;11.738;2023-06-14T06:26:28;4.25;;;3.17;;
48040;SDS011;33815;48.386;11.738;2023-06-14T06:28:53;3.97;;;2.40;;
48040;SDS011;33815;48.386;11.738;2023-06-14T06:31:19;3.20;;;2.67;;
48040;SDS011;33815;48.386;11.738;2023-06-14T06:33:45;3.88;;;3.03;;
48040;SDS011;33815;48.386;11.738;2023-06-14T06:36:10;6.57;;;3.30;;
48040;SDS011;33815;48.386;11.738;2023-06-14T06:38:35;5.35;;;3.08;;
48040;SDS011;33815;48.386;11.738;2023-06-14T06:41:01;4.07;;;3.05;;
48040;SDS011;33815;48.386;11.738;2023-06-14T06:43:26;5.50;;;2.87;;
48040;SDS011;33815;48.386;11.738;2023-06-14T06:45:51;5.57;;;3.47;;
48040;SDS011;33815;48.386;11.738;2023-06-14T06:48:17;4.03;;;2.57;;
48040;SDS011;33815;48.386;11.738;2023-06-14T06:50:42;8.57;;;2.92;;
48040;SDS011;33815;48.386;11.738;2023-06-14T06:53:07;6.97;;;2.90;;
48040;SDS011;33815;48.386;11.738;2023-06-14T06:55:32;4.80;;;2.85;;
48040;SDS011;33815;48.386;11.738;2023-06-14T06:57:58;4.35;;;2.75;;
48040;SDS011;33815;48.386;11.738;2023-06-14T07:00:24;3.20;;;2.80;;
48040;SDS011;33815;48.386;11.738;2023-06-14T07:02:50;5.55;;;3.35;;
48040;SDS011;33815;48.386;11.738;2023-06-14T07:05:15;3.63;;;2.25;;
48040;SDS011;33815;48.386;11.738;2023-06-14T07:07:41;6.15;;;2.63;;
48040;SDS011;33815;48.386;11.738;2023-06-14T07:10:06;3.50;;;2.38;;
48040;SDS011;33815;48.386;11.738;2023-06-14T07:12:32;2.63;;;2.28;;
48040;SDS011;33815;48.386;11.738;2023-06-14T07:14:59;5.35;;;3.13;;
48040;SDS011;33815;48.386;11.738;2023-06-14T07:17:25;6.95;;;2.33;;
48040;SDS011;33815;48.386;11.738;2023-06-14T07:19:50;3.38;;;2.40;;
48040;SDS011;33815;48.386;11.738;2023-06-14T07:22:16;4.03;;;2.38;;
48040;SDS011;33815;48.386;11.738;2023-06-14T07:24:41;3.25;;;2.50;;
48040;SDS011;33815;48.386;11.738;2023-06-14T07:27:07;9.70;;;2.92;;
48040;SDS011;33815;48.386;11.738;2023-06-14T07:29:33;7.25;;;2.80;;
48040;SDS011;33815;48.386;11.738;2023-06-14T07:31:58;4.80;;;2.58;;
48040;SDS011;33815;48.386;11.738;2023-06-14T07:34:23;2.73;;;2.33;;
48040;SDS011;33815;48.386;11.738;2023-06-14T07:36:48;6.10;;;2.35;;
48040;SDS011;33815;48.386;11.738;2023-06-14T07:39:14;3.28;;;2.50;;
48040;SDS011;33815;48.386;11.738;2023-06-14T07:41:39;3.53;;;2.80;;
48040;SDS011;33815;48.386;11.738;2023-06-14T07:44:04;4.35;;;2.63;;
48040;SDS011;33815;48.386;11.738;2023-06-14T07:46:30;3.55;;;2.15;;
48040;SDS011;33815;48.386;11.738;2023-06-14T07:48:55;2.55;;;1.92;;
48040;SDS011;33815;48.386;11.738;2023-06-14T07:51:20;4.33;;;2.03;;
48040;SDS011;33815;48.386;11.738;2023-06-14T07:53:47;3.35;;;2.17;;
48040;SDS011;33815;48.386;11.738;2023-06-14T07:56:13;3.67;;;2.42;;
48040;SDS011;33815;48.386;11.738;2023-06-14T07:58:38;2.92;;;2.42;;
48040;SDS011;33815;48.386;11.738;2023-06-14T08:01:04;4.37;;;2.20;;
48040;SDS011;33815;48.386;11.738;2023-06-14T08:03:32;3.35;;;2.10;;
48040;SDS011;33815;48.386;11.738;2023-06-14T08:05:58;6.47;;;2.88;;
48040;SDS011;33815;48.386;11.738;2023-06-14T08:08:23;7.95;;;2.75;;
48040;SDS011;33815;48.386;11.738;2023-06-14T08:10:49;5.40;;;2.30;;
48040;SDS011;33815;48.386;11.738;2023-06-14T08:13:14;3.50;;;2.28;;
48040;SDS011;33815;48.386;11.738;2023-06-14T08:15:39;2.55;;;1.98;;
48040;SDS011;33815;48.386;11.738;2023-06-14T08:18:05;3.15;;;2.20;;
48040;SDS011;33815;48.386;11.738;2023-06-14T08:20:30;2.13;;;1.90;;
48040;SDS011;33815;48.386;11.738;2023-06-14T08:22:56;6.75;;;2.20;;
48040;SDS011;33815;48.386;11.738;2023-06-14T08:25:22;4.90;;;2.28;;
48040;SDS011;33815;48.386;11.738;2023-06-14T08:27:48;2.35;;;2.15;;
48040;SDS011;33815;48.386;11.738;2023-06-14T08:30:13;5.25;;;2.42;;
48040;SDS011;33815;48.386;11.738;2023-06-14T08:32:39;3.72;;;2.17;;
48040;SDS011;33815;48.386;11.738;2023-06-14T08:35:04;3.97;;;2.40;;
48040;SDS011;33815;48.386;11.738;2023-06-14T08:37:30;2.80;;;2.13;;
48040;SDS011;33815;48.386;11.738;2023-06-14T08:39:56;4.57;;;2.28;;
48040;SDS011;33815;48.386;11.738;2023-06-14T08:42:21;2.93;;;2.07;;
48040;SDS011;33815;48.386;11.738;2023-06-14T08:44:49;6.43;;;2.30;;
48040;SDS011;33815;48.386;11.738;2023-06-14T08:47:14;3.72;;;2.15;;
48040;SDS011;33815;48.386;11.738;2023-06-14T08:49:44;3.67;;;2.05;;
48040;SDS011;33815;48.386;11.738;2023-06-14T08:52:13;2.67;;;2.03;;
48040;SDS011;33815;48.386;11.738;2023-06-14T08:54:44;4.85;;;2.15;;
48040;SDS011;33815;48.386;11.738;2023-06-14T08:57:13;2.72;;;2.13;;
48040;SDS011;33815;48.386;11.738;2023-06-14T08:59:40;3.00;;;2.70;;
48040;SDS011;33815;48.386;11.738;2023-06-14T09:02:11;4.00;;;1.95;;
48040;SDS011;33815;48.386;11.738;2023-06-14T09:04:38;3.53;;;2.58;;
48040;SDS011;33815;48.386;11.738;2023-06-14T09:07:04;5.63;;;2.58;;
48040;SDS011;33815;48.386;11.738;2023-06-14T09:09:31;3.33;;;2.13;;
48040;SDS011;33815;48.386;11.738;2023-06-14T09:11:56;3.37;;;2.13;;
48040;SDS011;33815;48.386;11.738;2023-06-14T09:14:23;3.67;;;2.20;;
48040;SDS011;33815;48.386;11.738;2023-06-14T09:16:53;2.28;;;2.00;;
48040;SDS011;33815;48.386;11.738;2023-06-14T09:19:23;2.67;;;1.83;;
48040;SDS011;33815;48.386;11.738;2023-06-14T09:21:49;2.78;;;2.15;;
48040;SDS011;33815;48.386;11.738;2023-06-14T09:24:16;2.13;;;1.80;;
48040;SDS011;33815;48.386;11.738;2023-06-14T09:26:42;2.37;;;2.00;;
48040;SDS011;33815;48.386;11.738;2023-06-14T09:29:07;2.77;;;2.53;;
48040;SDS011;33815;48.386;11.738;2023-06-14T09:31:34;2.22;;;1.80;;
48040;SDS011;33815;48.386;11.738;2023-06-14T09:34:01;2.03;;;1.83;;
48040;SDS011;33815;48.386;11.738;2023-06-14T09:36:27;2.53;;;1.88;;
48040;SDS011;33815;48.386;11.738;2023-06-14T09:38:53;6.32;;;1.95;;
48040;SDS011;33815;48.386;11.738;2023-06-14T09:41:19;2.17;;;1.92;;
48040;SDS011;33815;48.386;11.738;2023-06-14T09:43:46;3.30;;;2.60;;
48040;SDS011;33815;48.386;11.738;2023-06-14T09:46:12;1.83;;;1.73;;
48040;SDS011;33815;48.386;11.738;2023-06-14T09:48:38;2.70;;;2.10;;
48040;SDS011;33815;48.386;11.738;2023-06-14T09:51:07;4.50;;;2.00;;
48040;SDS011;33815;48.386;11.738;2023-06-14T09:53:35;2.58;;;1.83;;
48040;SDS011;33815;48.386;11.738;2023-06-14T09:56:01;6.68;;;2.25;;
48040;SDS011;33815;48.386;11.738;2023-06-14T09:58:28;10.55;;;2.30;;
48040;SDS011;33815;48.386;11.738;2023-06-14T10:00:56;3.92;;;1.90;;
48040;SDS011;33815;48.386;11.738;2023-06-14T10:03:28;8.85;;;1.65;;
48040;SDS011;33815;48.386;11.738;2023-06-14T10:05:55;5.80;;;2.22;;
48040;SDS011;33815;48.386;11.738;2023-06-14T10:08:25;3.47;;;2.38;;
48040;SDS011;33815;48.386;11.738;2023-06-14T10:10:55;1.80;;;1.70;;
48040;SDS011;33815;48.386;11.738;2023-06-14T10:13:21;2.70;;;2.08;;
48040;SDS011;33815;48.386;11.738;2023-06-14T10:23:47;4.13;;;2.35;;
48040;SDS011;33815;48.386;11.738;2023-06-14T10:26:22;3.17;;;2.30;;
48040;SDS011;33815;48.386;11.738;2023-06-14T10:31:42;4.10;;;2.38;;
48040;SDS011;33815;48.386;11.738;2023-06-14T10:34:09;2.55;;;2.35;;
48040;SDS011;33815;48.386;11.738;2023-06-14T10:36:34;6.32;;;2.17;;
48040;SDS011;33815;48.386;11.738;2023-06-14T10:39:07;7.43;;;2.20;;
48040;SDS011;33815;48.386;11.738;2023-06-14T10:41:39;5.03;;;2.00;;
48040;SDS011;33815;48.386;11.738;2023-06-14T10:46:40;2.63;;;2.00;;
48040;SDS011;33815;48.386;11.738;2023-06-14T10:49:10;6.32;;;2.20;;
48040;SDS011;33815;48.386;11.738;2023-06-14T10:51:41;2.20;;;1.90;;
48040;SDS011;33815;48.386;11.738;2023-06-14T10:54:11;6.45;;;2.17;;
48040;SDS011;33815;48.386;11.738;2023-06-14T10:56:38;4.53;;;2.33;;
48040;SDS011;33815;48.386;11.738;2023-06-14T10:59:11;3.40;;;2.05;;
48040;SDS011;33815;48.386;11.738;2023-06-14T11:01:38;4.57;;;2.30;;
48040;SDS011;33815;48.386;11.738;2023-06-14T11:04:10;4.38;;;1.77;;
48040;SDS011;33815;48.386;11.738;2023-06-14T11:06:47;2.80;;;2.08;;
48040;SDS011;33815;48.386;11.738;2023-06-14T11:11:48;3.28;;;2.10;;
48040;SDS011;33815;48.386;11.738;2023-06-14T11:14:14;4.72;;;2.22;;
48040;SDS011;33815;48.386;11.738;2023-06-14T11:16:39;4.30;;;2.30;;
48040;SDS011;33815;48.386;11.738;2023-06-14T11:19:05;3.78;;;2.53;;
48040;SDS011;33815;48.386;11.738;2023-06-14T11:21:31;4.68;;;2.17;;
48040;SDS011;33815;48.386;11.738;2023-06-14T11:23:58;4.28;;;3.10;;
48040;SDS011;33815;48.386;11.738;2023-06-14T11:26:30;3.15;;;2.13;;
48040;SDS011;33815;48.386;11.738;2023-06-14T11:29:00;3.05;;;1.60;;
48040;SDS011;33815;48.386;11.738;2023-06-14T11:31:26;4.90;;;2.22;;
48040;SDS011;33815;48.386;11.738;2023-06-14T11:33:56;2.83;;;2.05;;
48040;SDS011;33815;48.386;11.738;2023-06-14T11:36:22;5.25;;;1.90;;
48040;SDS011;33815;48.386;11.738;2023-06-14T11:38:48;2.50;;;2.20;;
48040;SDS011;33815;48.386;11.738;2023-06-14T11:41:13;2.58;;;2.10;;
48040;SDS011;33815;48.386;11.738;2023-06-14T11:43:39;2.43;;;2.23;;
48040;SDS011;33815;48.386;11.738;2023-06-14T11:46:11;5.72;;;2.28;;
48040;SDS011;33815;48.386;11.738;2023-06-14T11:48:40;1.90;;;1.80;;
48040;SDS011;33815;48.386;11.738;2023-06-14T11:51:07;15.40;;;3.70;;
48040;SDS011;33815;48.386;11.738;2023-06-14T11:53:33;2.15;;;1.85;;
48040;SDS011;33815;48.386;11.738;2023-06-14T11:55:59;4.30;;;2.08;;
48040;SDS011;33815;48.386;11.738;2023-06-14T11:58:25;3.22;;;2.13;;
48040;SDS011;33815;48.386;11.738;2023-06-14T12:00:50;3.50;;;1.85;;
48040;SDS011;33815;48.386;11.738;2023-06-14T12:03:17;3.03;;;1.88;;
48040;SDS011;33815;48.386;11.738;2023-06-14T12:05:42;3.78;;;2.13;;
48040;SDS011;33815;48.386;11.738;2023-06-14T12:08:08;5.45;;;2.17;;
48040;SDS011;33815;48.386;11.738;2023-06-14T12:10:40;2.30;;;2.10;;
48040;SDS011;33815;48.386;11.738;2023-06-14T12:13:08;3.28;;;1.83;;
48040;SDS011;33815;48.386;11.738;2023-06-14T12:15:34;2.53;;;2.03;;
48040;SDS011;33815;48.386;11.738;2023-06-14T12:17:59;2.95;;;1.88;;
48040;SDS011;33815;48.386;11.738;2023-06-14T12:20:28;3.35;;;2.13;;
48040;SDS011;33815;48.386;11.738;2023-06-14T12:22:56;3.88;;;2.13;;
48040;SDS011;33815;48.386;11.738;2023-06-14T12:25:24;3.10;;;1.90;;
48040;SDS011;33815;48.386;11.738;2023-06-14T12:27:57;3.50;;;2.28;;
48040;SDS011;33815;48.386;11.738;2023-06-14T12:30:23;1.85;;;1.67;;
48040;SDS011;33815;48.386;11.738;2023-06-14T12:32:48;5.55;;;2.42;;
48040;SDS011;33815;48.386;11.738;2023-06-14T12:35:14;4.63;;;1.83;;
48040;SDS011;33815;48.386;11.738;2023-06-14T12:37:40;9.00;;;1.88;;
48040;SDS011;33815;48.386;11.738;2023-06-14T12:40:05;3.35;;;1.90;;
48040;SDS011;33815;48.386;11.738;2023-06-14T12:42:31;2.13;;;1.92;;
48040;SDS011;33815;48.386;11.738;2023-06-14T12:44:58;3.33;;;2.30;;
48040;SDS011;33815;48.386;11.738;2023-06-14T12:47:23;2.37;;;2.17;;
48040;SDS011;33815;48.386;11.738;2023-06-14T12:49:48;2.90;;;2.10;;
48040;SDS011;33815;48.386;11.738;2023-06-14T12:52:14;2.77;;;2.10;;
48040;SDS011;33815;48.386;11.738;2023-06-14T12:54:39;3.13;;;2.10;;
48040;SDS011;33815;48.386;11.738;2023-06-14T12:57:05;3.50;;;2.23;;
48040;SDS011;33815;48.386;11.738;2023-06-14T12:59:30;2.70;;;1.95;;
48040;SDS011;33815;48.386;11.738;2023-06-14T13:01:59;3.97;;;2.00;;
48040;SDS011;33815;48.386;11.738;2023-06-14T13:04:25;5.35;;;2.90;;
48040;SDS011;33815;48.386;11.738;2023-06-14T13:06:50;3.90;;;2.60;;
48040;SDS011;33815;48.386;11.738;2023-06-14T13:09:15;2.80;;;2.10;;
48040;SDS011;33815;48.386;11.738;2023-06-14T13:11:41;2.80;;;2.33;;
48040;SDS011;33815;48.386;11.738;2023-06-14T13:14:06;3.23;;;2.73;;
48040;SDS011;33815;48.386;11.738;2023-06-14T13:16:31;4.40;;;2.07;;
48040;SDS011;33815;48.386;11.738;2023-06-14T13:18:56;3.67;;;2.00;;
48040;SDS011;33815;48.386;11.738;2023-06-14T13:21:21;2.23;;;2.00;;
48040;SDS011;33815;48.386;11.738;2023-06-14T13:23:47;4.33;;;2.37;;
48040;SDS011;33815;48.386;11.738;2023-06-14T13:26:12;3.27;;;2.20;;
48040;SDS011;33815;48.386;11.738;2023-06-14T13:28:37;5.57;;;2.53;;
48040;SDS011;33815;48.386;11.738;2023-06-14T13:31:02;3.60;;;2.20;;
48040;SDS011;33815;48.386;11.738;2023-06-14T13:33:28;2.60;;;2.40;;
48040;SDS011;33815;48.386;11.738;2023-06-14T13:35:54;2.55;;;2.10;;
48040;SDS011;33815;48.386;11.738;2023-06-14T13:38:19;4.18;;;1.98;;
48040;SDS011;33815;48.386;11.738;2023-06-14T13:40:45;2.08;;;1.98;;
48040;SDS011;33815;48.386;11.738;2023-06-14T13:43:10;3.38;;;2.45;;
48040;SDS011;33815;48.386;11.738;2023-06-14T13:45:36;2.70;;;2.07;;
48040;SDS011;33815;48.386;11.738;2023-06-14T13:48:01;2.05;;;1.88;;
48040;SDS011;33815;48.386;11.738;2023-06-14T13:50:26;2.23;;;2.03;;
48040;SDS011;33815;48.386;11.738;2023-06-14T13:52:52;3.08;;;2.10;;
48040;SDS011;33815;48.386;11.738;2023-06-14T13:55:17;3.97;;;2.13;;
48040;SDS011;33815;48.386;11.738;2023-06-14T13:57:42;5.13;;;2.10;;
48040;SDS011;33815;48.386;11.738;2023-06-14T14:00:08;2.78;;;2.25;;
48040;SDS011;33815;48.386;11.738;2023-06-14T14:02:34;3.47;;;2.38;;
48040;SDS011;33815;48.386;11.738;2023-06-14T14:04:59;4.70;;;2.57;;
48040;SDS011;33815;48.386;11.738;2023-06-14T14:07:25;3.88;;;2.15;;
48040;SDS011;33815;48.386;11.738;2023-06-14T14:09:50;2.38;;;1.88;;
48040;SDS011;33815;48.386;11.738;2023-06-14T14:12:15;4.05;;;2.30;;
48040;SDS011;33815;48.386;11.738;2023-06-14T14:14:41;2.53;;;2.20;;
48040;SDS011;33815;48.386;11.738;2023-06-14T14:17:06;2.40;;;2.20;;
48040;SDS011;33815;48.386;11.738;2023-06-14T14:19:32;4.03;;;2.30;;
48040;SDS011;33815;48.386;11.738;2023-06-14T14:21:57;4.43;;;3.17;;
48040;SDS011;33815;48.386;11.738;2023-06-14T14:24:22;2.03;;;1.83;;
48040;SDS011;33815;48.386;11.738;2023-06-14T14:26:48;3.27;;;2.50;;
48040;SDS011;33815;48.386;11.738;2023-06-14T14:29:14;2.83;;;2.50;;
48040;SDS011;33815;48.386;11.738;2023-06-14T14:31:40;2.33;;;2.13;;
48040;SDS011;33815;48.386;11.738;2023-06-14T14:34:05;3.33;;;2.00;;
48040;SDS011;33815;48.386;11.738;2023-06-14T14:36:30;6.00;;;2.47;;
48040;SDS011;33815;48.386;11.738;2023-06-14T14:38:56;6.43;;;2.25;;
48040;SDS011;33815;48.386;11.738;2023-06-14T14:41:21;3.77;;;2.27;;
48040;SDS011;33815;48.386;11.738;2023-06-14T14:43:46;3.10;;;1.90;;